• Join FlightAware (Why Join?)
  • Login
  • US Flag 
03:00AM EDT


 

Airport Tracker/Info


-or-


 

Live Flight TrackerFlight Track Log ✈ AMF1026 ✈ 12-Aug-2013 ✈ KALB - KCVG

Flight Track Log - Related Links

Times and Time Zones

All times are in EDT time to prevent confusion due to time zone crossing. See the AMF1026 flight status page for this flight to view local times or setup timezone preferences in your user account.

Time Position Orientation Groundspeed Altitude Reporting Facility
EDT Latitude Longitude Course Direction KTS MPH feet Rate Location/Type
08:50PM 42.7339 -73.8081 233° Southwest 137 158 1,000  Level Boston Center
08:51PM 42.7064 -73.8583 233° Southwest 177 204 3,300 1,740 Climbing Boston Center
08:52PM 42.7053 -73.9375 269° West 188 216 5,600 1,680 Climbing Boston Center
08:53PM 42.7106 -74.0056 276° West 188 216 7,300 1,680 Climbing Boston Center
08:54PM 42.7139 -74.0706 274° West 183 211 9,000 1,560 Climbing Boston Center
08:55PM 42.7233 -74.1358 281° West 171 197 10,500 1,620 Climbing Boston Center
08:56PM 42.7369 -74.1956 276° West 171 197 12,300 1,560 Climbing Boston Center
08:57PM 42.7305 -74.2292 276° West  Level FlightAware Approximate
08:57PM 42.7467 -74.2494 284° West 155 178 13,700  Level Boston Center
08:58PM 42.7475 -74.3147 271° West 162 186 14,400 780 Climbing Boston Center
08:59PM 42.7342 -74.3764 254° West 167 192 15,300 780 Climbing Boston Center
09:00PM 42.7122 -74.4408 242° Southwest 185 213 16,000 120 Climbing Boston Center
09:01PM 42.7019 -74.4594 242° Southwest  Level FlightAware Approximate
09:03PM 42.6481 -74.5943 240° Southwest  Level FlightAware Approximate
09:03PM 42.6353 -74.6528 240° Southwest 218 251 16,000  Level Boston Center
09:04PM 42.6089 -74.7222 243° Southwest 212 244 16,100  Climbing Boston Center
09:05PM 42.5844 -74.7975 246° West 217 250 16,000  Descending Boston Center
09:06PM 42.5706 -74.8533 251° West 217 250 16,100  Climbing Boston Center
09:07PM 42.5519 -74.9458 255° West 222 255 16,100  Level Boston Center
09:08PM 42.5275 -75.0208 246° West 222 255 16,100 -60 Level Boston Center
09:09PM 42.5047 -75.0989 248° West 222 255 16,000  Descending Boston Center
09:10PM 42.4864 -75.1711 251° West 222 255 16,100  Climbing Boston Center
09:11PM 42.4700 -75.2492 254° West 222 255 16,000  Descending Boston Center
09:13PM 42.4125 -75.3822 240° Southwest 218 251 16,100  Climbing New York Center
09:14PM 42.3808 -75.4472 237° Southwest 218 251 16,000 -60 Descending New York Center
09:15PM 42.3489 -75.5153 238° Southwest 218 251 16,000  Level New York Center
09:16PM 42.3150 -75.5828 236° Southwest 224 258 16,000  Level New York Center
09:17PM 42.2869 -75.6564 243° Southwest 224 258 16,000  Level New York Center
09:18PM 42.2631 -75.7331 247° West 224 258 16,000  Level New York Center
09:19PM 42.2475 -75.8075 254° West 218 251 16,000  Level New York Center
09:20PM 42.2317 -75.8875 255° West 218 251 16,000  Level New York Center
09:21PM 42.2136 -75.9644 252° West 218 251 16,000  Level New York Center
09:22PM 42.1897 -76.0383 246° West 223 257 16,000  Level New York Center
09:23PM 42.1633 -76.1144 245° Southwest 223 257 16,000  Level New York Center
09:24PM 42.1350 -76.1875 242° Southwest 229 264 16,000  Level New York Center
09:25PM 42.1128 -76.2642 249° West 229 264 16,000  Level New York Center
09:26PM 42.0864 -76.3372 244° Southwest 229 264 16,000  Level New York Center
09:27PM 42.0642 -76.4136 249° West 229 264 16,000  Level New York Center
09:28PM 42.0439 -76.4903 250° West 229 264 16,000  Level New York Center
09:29PM 42.0214 -76.5664 248° West 229 264 16,000  Level New York Center
09:30PM 41.9967 -76.6453 247° West 229 264 16,000  Level New York Center
09:31PM 41.9703 -76.7181 244° Southwest 229 264 16,000  Level New York Center
09:32PM 41.9436 -76.7911 244° Southwest 229 264 16,000  Level New York Center
09:33PM 41.9128 -76.8636 240° Southwest 229 264 16,000  Level New York Center
09:36PM 41.8431 -77.0514 244° Southwest 222 255 16,000  Level Cleveland Center
09:37PM 41.8183 -77.1225 245° Southwest 222 255 16,000  Level Cleveland Center
09:38PM 41.7956 -77.1989 248° West 222 255 16,000  Level Cleveland Center
09:39PM 41.7725 -77.2697 246° West 222 255 16,000  Level Cleveland Center
09:40PM 41.7497 -77.3461 248° West 222 255 16,000  Level Cleveland Center
09:41PM 41.7267 -77.4197 247° West 222 255 16,000  Level Cleveland Center
09:42PM 41.6994 -77.4906 243° Southwest 222 255 16,000  Level Cleveland Center
09:43PM 41.6697 -77.5531 238° Southwest 227 261 16,100  Climbing Cleveland Center
09:44PM 41.6383 -77.6186 237° Southwest 227 261 16,100  Level Cleveland Center
09:45PM 41.6044 -77.6839 235° Southwest 227 261 16,100  Level Cleveland Center
09:46PM 41.5811 -77.7572 247° West 216 249 16,100  Level Cleveland Center
09:47PM 41.5622 -77.8300 251° West 210 242 16,100  Level Cleveland Center
09:48PM 41.5408 -77.9031 249° West 210 242 16,100  Level Cleveland Center
09:49PM 41.5111 -77.9683 239° Southwest 210 242 16,100  Level Cleveland Center
09:50PM 41.4750 -78.0333 233° Southwest 217 250 16,100  Level Cleveland Center
09:51PM 41.4411 -78.0956 234° Southwest 217 250 16,100  Level Cleveland Center
09:52PM 41.4069 -78.1578 234° Southwest 217 250 16,100  Level Cleveland Center
09:53PM 41.3875 -78.2306 250° West 217 250 16,100  Level Cleveland Center
09:54PM 41.3767 -78.3058 259° West 211 243 16,100  Level Cleveland Center
09:55PM 41.3572 -78.3811 251° West 211 243 16,100  Level Cleveland Center
09:56PM 41.3314 -78.4511 244° Southwest 211 243 16,100  Level Cleveland Center
09:57PM 41.3097 -78.5208 248° West 211 243 16,100  Level Cleveland Center
09:58PM 41.2883 -78.5961 249° West 216 249 16,100  Level Cleveland Center
09:59PM 41.2686 -78.6658 249° West 216 249 16,100  Level Cleveland Center
10:00PM 41.2489 -78.7383 250° West 216 249 16,100  Level Cleveland Center
10:01PM 41.2272 -78.8133 249° West 216 249 16,100  Level Cleveland Center
10:02PM 41.2075 -78.8883 251° West 216 249 16,100  Level Cleveland Center
10:03PM 41.1875 -78.9581 249° West 216 249 16,100  Level Cleveland Center
10:04PM 41.1697 -79.0303 252° West 216 249 16,100  Level Cleveland Center
10:05PM 41.1519 -79.1050 252° West 216 249 16,100  Level Cleveland Center
10:06PM 41.1322 -79.1772 250° West 211 243 16,100  Level Cleveland Center
10:07PM 41.1142 -79.2519 252° West 216 249 16,100 -60 Level Cleveland Center
10:08PM 41.0900 -79.3242 246° West 216 249 16,000 -60 Descending Cleveland Center
10:09PM 41.0658 -79.3961 246° West 216 249 16,000  Level Cleveland Center
10:10PM 41.0436 -79.4681 248° West 216 249 16,000  Level Cleveland Center
10:11PM 41.0192 -79.5372 245° Southwest 216 249 16,000  Level Cleveland Center
10:12PM 40.9992 -79.6092 250° West 216 249 16,000  Level Cleveland Center
10:13PM 40.9767 -79.6811 248° West 216 249 16,000  Level Cleveland Center
10:14PM 40.9522 -79.7528 246° West 216 249 16,000  Level Cleveland Center
10:15PM 40.9297 -79.8247 248° West 216 249 16,000  Level Cleveland Center
10:16PM 40.9094 -79.8964 249° West 216 249 16,000  Level Cleveland Center
10:17PM 40.8931 -79.9706 254° West 216 249 16,000  Level Cleveland Center
10:18PM 40.8789 -80.0447 256° West 216 249 16,000  Level Cleveland Center
10:19PM 40.8564 -80.1247 250° West 211 243 16,000  Level Cleveland Center
10:20PM 40.8294 -80.1961 244° Southwest 211 243 16,000  Level Cleveland Center
10:21PM 40.8006 -80.2650 241° Southwest 217 250 16,000  Level Cleveland Center
10:22PM 40.7611 -80.3281 230° Southwest 222 255 16,000  Level Cleveland Center
10:23PM 40.7258 -80.3914 234° Southwest 229 264 16,000  Level Cleveland Center
10:24PM 40.6883 -80.4517 231° Southwest 224 258 16,000  Level Cleveland Center
10:25PM 40.6550 -80.5064 231° Southwest 224 258 16,000  Level Cleveland Center
10:26PM 40.6175 -80.5694 232° Southwest 224 258 16,000  Level Cleveland Center
10:27PM 40.5842 -80.6322 235° Southwest 218 251 16,000  Level Cleveland Center
10:28PM 40.5486 -80.6950 233° Southwest 213 245 16,000  Level Cleveland Center
10:29PM 40.5153 -80.7606 236° Southwest 213 245 16,000  Level Cleveland Center
10:30PM 40.4817 -80.8286 237° Southwest 213 245 16,000  Level Cleveland Center
10:31PM 40.4483 -80.8942 236° Southwest 218 251 16,000  Level Cleveland Center
10:32PM 40.4125 -80.9594 234° Southwest 218 251 16,000  Level Cleveland Center
10:33PM 40.3789 -81.0300 238° Southwest 223 257 16,000  Level Cleveland Center
10:34PM 40.3453 -81.0981 237° Southwest 223 257 16,000  Level Cleveland Center
10:35PM 40.3136 -81.1711 240° Southwest 229 264 16,000  Level Cleveland Center
10:36PM 40.2833 -81.2381 239° Southwest 234 269 16,000  Level Indianapolis Center
10:37PM 40.2508 -81.3106 240° Southwest 232 267 16,000 480 Level Indianapolis Center
10:38PM 40.2192 -81.3828 240° Southwest 229 264 17,000 900 Climbing Indianapolis Center
10:39PM 40.1794 -81.4494 232° Southwest 208 239 17,900 540 Climbing Indianapolis Center
10:40PM 40.1364 -81.5039 224° Southwest 211 243 18,200 540 Climbing Indianapolis Center
10:41PM 40.0953 -81.5547 223° Southwest 207 238 19,000 540 Climbing Indianapolis Center
10:42PM 40.0547 -81.6047 223° Southwest 201 231 19,400 480 Climbing Indianapolis Center
10:43PM 40.0122 -81.6528 221° Southwest 200 230 20,000 240 Climbing Indianapolis Center
10:44PM 39.9686 -81.7033 222° Southwest 207 238 20,000  Level Indianapolis Center
10:45PM 39.9272 -81.7464 219° Southwest 210 242 20,000  Level Indianapolis Center
10:46PM 39.8842 -81.7983 223° Southwest 210 242 20,000  Level Indianapolis Center
10:47PM 39.8597 -81.8725 247° West 221 254 20,000  Level Indianapolis Center
10:48PM 39.8381 -81.9611 252° West 216 249 20,000  Level Indianapolis Center
10:49PM 39.8239 -82.0331 256° West 209 241 20,000  Level Indianapolis Center
10:50PM 39.8119 -82.1075 258° West 210 242 20,000  Level Indianapolis Center
10:51PM 39.7986 -82.1869 258° West 221 254 20,000  Level Indianapolis Center
10:52PM 39.7864 -82.2653 259° West 221 254 20,000  Level Indianapolis Center
10:53PM 39.7694 -82.3439 254° West 226 260 20,000  Level Indianapolis Center
10:54PM 39.7603 -82.4225 261° West 222 255 20,000  Level Indianapolis Center
10:55PM 39.7533 -82.5017 264° West 223 257 20,000  Level Indianapolis Center
10:56PM 39.7319 -82.5778 250° West 222 255 20,000  Level Indianapolis Center
10:57PM 39.7072 -82.6647 250° West 217 250 20,000  Level Indianapolis Center
10:58PM 39.6758 -82.7286 237° Southwest 213 245 20,000  Level Indianapolis Center
10:59PM 39.6344 -82.7850 226° Southwest 216 249 20,000  Level Indianapolis Center
11:00PM 39.5936 -82.8400 226° Southwest 215 247 20,000 -300 Level Indianapolis Center
11:02PM 39.5117 -82.9547 227° Southwest 219 252 19,100 -840 Descending Indianapolis Center
11:03PM 39.4603 -83.0197 224° Southwest 252 290 17,600 -1,140 Descending Indianapolis Center
11:04PM 39.4056 -83.0833 222° Southwest 263 303 16,900 -480 Descending Indianapolis Center
11:05PM 39.3597 -83.1475 227° Southwest 248 285 16,700 -300 Descending Indianapolis Center
11:06PM 39.3189 -83.2133 231° Southwest 237 273 16,300 -300 Descending Indianapolis Center
11:07PM 39.2883 -83.3025 246° West 231 266 16,100 -540 Descending Indianapolis Center
11:08PM 39.2586 -83.3719 241° Southwest 224 258 15,200 -960 Descending Indianapolis Center
11:09PM 39.2397 -83.4500 253° West 230 265 14,200 -900 Descending Indianapolis Center
11:10PM 39.2222 -83.5317 255° West 236 272 13,400 -840 Descending Indianapolis Center
11:11PM 39.2089 -83.6181 259° West 243 280 12,500 -840 Descending Indianapolis Center
11:12PM 39.1928 -83.7056 257° West 248 285 11,700 -720 Descending Indianapolis Center
11:13PM 39.1783 -83.7914 258° West 247 284 11,100 -300 Descending Indianapolis Center
11:14PM 39.1697 -83.8919 264° West 248 285 11,100 -60 Level Indianapolis Center
11:15PM 39.1719 -83.9775 272° West 243 280 11,000 -360 Descending Indianapolis Center
11:16PM 39.1761 -84.0639 274° West 244 281 10,400 -720 Descending Indianapolis Center
11:17PM 39.1756 -84.1481 270° West 238 274 9,600 -840 Descending Indianapolis Center
11:19PM 39.1778 -84.2219 272° West 204 235 8,800 -1,020 Descending Indianapolis Center
11:20PM 39.1753 -84.2919 267° West 204 235 7,600 -1,200 Descending Indianapolis Center
11:21PM 39.1708 -84.3731 266° West 219 252 6,400 -1,140 Descending Indianapolis Center
11:22PM 39.1664 -84.4506 266° West 220 253 5,400 -840 Descending Indianapolis Center
11:23PM 39.1675 -84.5219 271° West 211 243 4,800 -540 Descending Indianapolis Center
11:24PM 39.1689 -84.6050 271° West 207 238 4,400 -900 Descending Indianapolis Center
11:25PM 39.1667 -84.7000 268° West 194 223 2,500 -900 Descending Cincinnati TRACON
11:26PM 39.1167 -84.6833 165° South 198 228 2,000 -480 Descending Cincinnati TRACON
11:28PM 39.0487 -84.6697 171° South  Level FlightAware Approximate
11:35PM 39.0488 -84.6678 201° Southwest  Level Estimated